Wolcott, Indiana
Current Conditions -  °F | °C
As of 9:15 AM on Friday 24 Oct 2014 (Local Time) from KMCX Reporting Station
Overcast Overcast  
Wind Chill: 49°   Ceiling: 2600
Heat Index: 49°   Visibility: 7mi
Dew Point: 47°   Wind: 3mph
Humidity: 95%   Direction: 200°SSW
Pressure: 30.08"   Gusts: NA
Location:  40.76°N, 87.04°W
Report Text: KMCX 241315Z AUTO 20003KT 7SM OVC026 09/08 A3008 RMK AO2 T00920084
Loading
Personal Weather Stations






























Interactive Weather Map
Tropical Storm Tracking
New forecast layout! Learn more

10-Day Weather Forecast

Advertisements
Track Severe Weather on mobile